createdAt,value
2019-01-13T00:00:01.407Z,5.77
2019-01-13T00:05:10.549Z,5.54
2019-01-13T00:10:20.049Z,5.57
2019-01-13T00:15:29.215Z,5.38
2019-01-13T00:20:38.357Z,5.62
2019-01-13T00:25:47.458Z,5.33
2019-01-13T00:30:56.684Z,4.99
2019-01-13T00:36:05.741Z,4.99
2019-01-13T00:41:14.937Z,5.22
2019-01-13T00:46:23.998Z,4.85
2019-01-13T00:51:33.548Z,5.33
2019-01-13T00:56:42.613Z,5.11
2019-01-13T01:01:51.820Z,5.69
2019-01-13T01:07:01.300Z,4.71
2019-01-13T01:12:10.528Z,5.19
2019-01-13T01:17:19.697Z,5.64
2019-01-13T01:22:28.941Z,4.26
2019-01-13T01:27:38.004Z,4.52
2019-01-13T01:32:47.294Z,4.41
2019-01-13T01:37:56.530Z,4.33
2019-01-13T01:43:05.748Z,3.91
2019-01-13T01:48:14.863Z,4.29
2019-01-13T01:53:24.457Z,4.86
2019-01-13T01:58:33.926Z,4.18
2019-01-13T02:03:43.167Z,4.07
2019-01-13T02:08:52.274Z,4.61
2019-01-13T02:14:01.477Z,5.28
2019-01-13T02:19:10.541Z,4.88
2019-01-13T02:24:19.744Z,5.17
2019-01-13T02:29:27.792Z,5.20
2019-01-13T02:34:36.996Z,5.38
2019-01-13T02:39:46.084Z,4.71
2019-01-13T02:44:55.424Z,4.73
2019-01-13T02:50:04.425Z,5.02
2019-01-13T02:55:13.736Z,4.67
2019-01-13T03:00:22.833Z,4.94
2019-01-13T03:05:32.140Z,4.47
2019-01-13T03:10:41.221Z,5.18
2019-01-13T03:15:50.385Z,5.28
2019-01-13T03:20:59.452Z,5.16
2019-01-13T03:26:08.704Z,5.27
2019-01-13T03:31:17.779Z,5.02
2019-01-13T03:36:27.073Z,5.26
2019-01-13T03:41:36.174Z,5.20
2019-01-13T03:46:45.367Z,4.48
2019-01-13T03:51:54.461Z,4.80
2019-01-13T03:57:03.598Z,4.92
2019-01-13T04:02:12.821Z,4.48
2019-01-13T04:07:22.024Z,5.18
2019-01-13T04:12:31.113Z,4.70
2019-01-13T04:17:40.318Z,4.56
2019-01-13T04:22:49.385Z,4.57
2019-01-13T04:27:58.625Z,4.92
2019-01-13T04:33:07.784Z,5.11
2019-01-13T04:38:16.917Z,5.40
2019-01-13T04:43:26.016Z,4.64
2019-01-13T04:48:35.613Z,5.42
2019-01-13T04:53:44.713Z,4.23
2019-01-13T04:58:54.312Z,5.42
2019-01-13T05:04:03.382Z,4.37
2019-01-13T05:09:11.134Z,4.60
2019-01-13T05:14:20.512Z,4.36
2019-01-13T05:19:29.724Z,5.11
2019-01-13T05:24:38.781Z,4.73
2019-01-13T05:29:47.984Z,4.54
2019-01-13T05:34:57.189Z,4.49
2019-01-13T05:40:06.389Z,4.50
2019-01-13T05:45:15.462Z,4.46
2019-01-13T05:50:24.637Z,4.97
2019-01-13T05:55:34.129Z,4.34
2019-01-13T06:00:43.336Z,4.92
2019-01-13T06:05:52.462Z,4.16
2019-01-13T06:11:01.817Z,5.26
2019-01-13T06:16:10.924Z,5.02
2019-01-13T06:21:20.186Z,5.82
2019-01-13T06:26:29.245Z,5.69
2019-01-13T06:31:38.429Z,6.00
2019-01-13T06:36:47.604Z,6.35
2019-01-13T06:41:56.837Z,6.04
2019-01-13T06:47:06.339Z,5.61
2019-01-13T06:52:15.517Z,5.17
2019-01-13T06:57:24.656Z,4.91
2019-01-13T07:02:33.845Z,4.88
2019-01-13T07:07:43.073Z,5.14
2019-01-13T07:12:52.365Z,5.33
2019-01-13T07:18:01.498Z,5.36
2019-01-13T07:23:10.678Z,5.50
2019-01-13T07:28:19.758Z,5.67
2019-01-13T07:33:28.932Z,5.69
2019-01-13T07:38:38.025Z,5.83
2019-01-13T07:43:47.273Z,5.39
2019-01-13T07:48:56.333Z,4.80
2019-01-13T07:54:05.610Z,4.90
2019-01-13T07:59:14.673Z,4.29
2019-01-13T08:04:23.857Z,4.13
2019-01-13T08:09:32.948Z,4.17
2019-01-13T08:14:42.081Z,4.17
2019-01-13T08:19:51.442Z,3.97
2019-01-13T08:25:00.689Z,4.24
2019-01-13T08:30:10.041Z,4.34
2019-01-13T08:35:19.229Z,4.51
2019-01-13T08:40:28.358Z,3.93
2019-01-13T08:45:37.537Z,3.97
2019-01-13T08:50:46.653Z,3.90
2019-01-13T08:55:54.374Z,3.93
2019-01-13T09:01:03.431Z,3.77
2019-01-13T09:06:12.592Z,3.97
2019-01-13T09:11:21.689Z,3.40
2019-01-13T09:16:30.973Z,4.21
2019-01-13T09:21:40.065Z,3.73
2019-01-13T09:26:51.188Z,3.73
2019-01-13T09:31:57.993Z,3.93
2019-01-13T09:37:07.347Z,3.46
2019-01-13T09:42:16.429Z,3.30
2019-01-13T09:47:25.745Z,3.21
2019-01-13T09:52:34.833Z,2.80
2019-01-13T09:57:44.033Z,2.28
2019-01-13T10:02:53.117Z,2.41
2019-01-13T10:08:02.317Z,1.73
2019-01-13T10:13:11.560Z,2.04
2019-01-13T10:18:20.841Z,1.71
2019-01-13T10:23:29.902Z,1.75
2019-01-13T10:28:39.141Z,1.86
2019-01-13T10:33:48.593Z,2.15
2019-01-13T10:38:57.780Z,1.88
2019-01-13T10:44:06.960Z,1.98
2019-01-13T10:49:16.258Z,2.60
2019-01-13T10:54:23.689Z,1.51
2019-01-13T10:59:32.890Z,2.03
2019-01-13T11:04:42.109Z,1.77
2019-01-13T11:09:51.421Z,1.76
2019-01-13T11:15:00.502Z,1.92
2019-01-13T11:20:09.989Z,1.93
2019-01-13T11:25:19.129Z,1.77
2019-01-13T11:30:28.309Z,1.86
2019-01-13T11:35:37.449Z,1.96
2019-01-13T11:40:46.782Z,1.95
2019-01-13T11:45:55.856Z,2.01
2019-01-13T11:51:05.082Z,1.99
2019-01-13T11:56:14.231Z,1.69
2019-01-13T12:01:23.864Z,2.28
2019-01-13T12:06:32.964Z,1.98
2019-01-13T12:11:42.169Z,2.75
2019-01-13T12:16:51.621Z,2.85
2019-01-13T12:22:00.832Z,3.18
2019-01-13T12:27:55.913Z,4.41
2019-01-13T12:32:15.133Z,4.03
2019-01-13T12:37:24.238Z,4.32
2019-01-13T12:42:33.509Z,4.11
2019-01-13T12:47:42.584Z,4.20
2019-01-13T12:52:51.791Z,4.37
2019-01-13T12:58:00.869Z,5.06
2019-01-13T13:03:10.062Z,4.91
2019-01-13T13:08:19.305Z,5.72
2019-01-13T13:13:28.485Z,4.98
2019-01-13T13:18:37.628Z,5.46
2019-01-13T13:23:46.857Z,5.46
2019-01-13T13:28:56.008Z,6.19
2019-01-13T13:34:05.157Z,6.38
2019-01-13T13:39:14.237Z,6.34
2019-01-13T13:44:23.501Z,6.21
2019-01-13T13:49:32.581Z,6.74
2019-01-13T13:54:42.113Z,7.12
2019-01-13T13:59:51.300Z,7.25
2019-01-13T14:05:00.539Z,9.75
2019-01-13T14:10:09.661Z,7.93
2019-01-13T14:15:18.825Z,7.77
2019-01-13T14:20:27.961Z,7.70
2019-01-13T14:25:37.130Z,7.22
2019-01-13T14:30:46.529Z,6.90
2019-01-13T14:35:55.821Z,5.86
2019-01-13T14:41:04.885Z,6.63
2019-01-13T14:46:14.462Z,7.37
2019-01-13T14:51:23.536Z,5.52
2019-01-13T14:56:32.687Z,4.32
2019-01-13T15:01:41.864Z,4.37
2019-01-13T15:06:51.113Z,2.95
2019-01-13T15:12:00.201Z,2.92
2019-01-13T15:17:09.412Z,3.28
2019-01-13T15:22:18.517Z,3.85
2019-01-13T15:27:27.817Z,3.69
2019-01-13T15:32:36.897Z,4.60
2019-01-13T15:37:46.465Z,5.50
2019-01-13T15:42:55.557Z,4.74
2019-01-13T15:48:04.776Z,4.43
2019-01-13T15:53:13.924Z,4.53
2019-01-13T15:58:23.200Z,3.86
2019-01-13T16:03:32.274Z,4.14
2019-01-13T16:08:41.506Z,4.18
2019-01-13T16:13:50.676Z,3.71
2019-01-13T16:19:00.005Z,4.40
2019-01-13T16:24:09.116Z,4.49
2019-01-13T16:29:18.320Z,5.02
2019-01-13T16:34:26.048Z,4.76
2019-01-13T16:39:35.233Z,5.66
2019-01-13T16:44:44.360Z,5.68
2019-01-13T16:49:53.685Z,6.19
2019-01-13T16:55:03.193Z,6.25
2019-01-13T17:00:12.283Z,6.12
2019-01-13T17:05:21.429Z,5.97
2019-01-13T17:10:30.617Z,6.18
2019-01-13T17:15:39.798Z,6.76
2019-01-13T17:20:48.958Z,6.49
2019-01-13T17:25:58.112Z,7.04
2019-01-13T17:31:07.338Z,7.03
2019-01-13T17:36:16.430Z,6.78
2019-01-13T17:41:25.682Z,6.76
2019-01-13T17:46:35.177Z,7.64
2019-01-13T17:51:44.353Z,7.66
2019-01-13T17:56:53.493Z,8.00
2019-01-13T18:02:02.684Z,7.78
2019-01-13T18:07:11.749Z,7.55
2019-01-13T18:12:21.005Z,6.95
2019-01-13T18:17:30.185Z,7.45
2019-01-13T18:22:39.443Z,7.24
2019-01-13T18:27:48.516Z,6.83
2019-01-13T18:32:57.753Z,6.03
2019-01-13T18:38:06.888Z,7.37
2019-01-13T18:43:16.115Z,6.39
2019-01-13T18:48:25.265Z,6.79
2019-01-13T18:53:34.543Z,6.19
2019-01-13T18:58:43.646Z,6.41
2019-01-13T19:03:53.229Z,6.42
2019-01-13T19:09:02.322Z,6.61
2019-01-13T19:14:11.489Z,6.96
2019-01-13T19:19:20.562Z,7.48
2019-01-13T19:24:29.752Z,7.26
2019-01-13T19:29:38.918Z,8.46
2019-01-13T19:34:48.109Z,7.66
2019-01-13T19:39:57.200Z,7.57
2019-01-13T19:45:06.369Z,7.49
2019-01-13T19:50:15.553Z,7.66
2019-01-13T19:55:24.821Z,7.83
2019-01-13T20:00:34.007Z,7.27
2019-01-13T20:05:43.176Z,8.05
2019-01-13T20:10:52.240Z,7.84
2019-01-13T20:16:01.478Z,6.98
2019-01-13T20:21:10.598Z,7.24
2019-01-13T20:26:19.849Z,7.20
2019-01-13T20:31:29.094Z,6.96
2019-01-13T20:36:38.319Z,6.39
2019-01-13T20:41:47.508Z,6.41
2019-01-13T20:46:56.738Z,7.40
2019-01-13T20:52:05.778Z,6.58
2019-01-13T20:57:14.989Z,7.82
2019-01-13T21:02:24.480Z,6.95
2019-01-13T21:07:33.884Z,6.45
2019-01-13T21:12:42.948Z,5.91
2019-01-13T21:17:57.497Z,6.49
2019-01-13T21:23:00.872Z,7.02
2019-01-13T21:28:10.127Z,7.74
2019-01-13T21:33:19.213Z,7.28
2019-01-13T21:38:28.389Z,7.07
2019-01-13T21:43:37.578Z,7.32
2019-01-13T21:48:46.925Z,7.26
2019-01-13T21:53:56.401Z,8.36
2019-01-13T21:59:05.615Z,7.89
2019-01-13T22:04:14.744Z,7.79
2019-01-13T22:09:23.976Z,7.49
2019-01-13T22:14:33.473Z,8.52
2019-01-13T22:19:42.720Z,8.23
2019-01-13T22:24:51.805Z,9.17
2019-01-13T22:30:00.977Z,8.65
2019-01-13T22:35:10.057Z,8.24
2019-01-13T22:40:19.300Z,8.08
2019-01-13T22:45:28.373Z,8.62
2019-01-13T22:50:37.589Z,9.96
2019-01-13T22:55:46.670Z,8.57
2019-01-13T23:00:55.913Z,8.35
2019-01-13T23:06:05.058Z,8.48
2019-01-13T23:11:14.185Z,8.02
2019-01-13T23:16:23.317Z,9.04
2019-01-13T23:21:32.464Z,8.25
2019-01-13T23:26:41.645Z,8.10
2019-01-13T23:31:50.829Z,9.49
2019-01-13T23:36:59.913Z,8.73
2019-01-13T23:42:09.093Z,9.22
2019-01-13T23:47:18.557Z,9.01
2019-01-13T23:52:27.795Z,8.37
2019-01-13T23:57:36.879Z,8.07
